createdAt,value
2023-01-19T00:01:48.444Z,13.70
2023-01-19T00:04:15.676Z,15.33
2023-01-19T00:06:42.984Z,11.13
2023-01-19T00:09:11.687Z,10.00
2023-01-19T00:11:39.412Z,13.90
2023-01-19T00:14:06.672Z,9.83
2023-01-19T00:16:33.955Z,11.57
2023-01-19T00:19:01.245Z,14.90
2023-01-19T00:21:28.498Z,11.57
2023-01-19T00:23:55.736Z,16.53
2023-01-19T00:26:24.458Z,12.57
2023-01-19T00:28:51.737Z,17.77
2023-01-19T00:31:19.016Z,15.37
2023-01-19T00:33:46.324Z,16.13
2023-01-19T00:36:13.635Z,14.17
2023-01-19T00:38:41.023Z,14.30
2023-01-19T00:41:08.552Z,8.20
2023-01-19T00:43:37.155Z,15.63
2023-01-19T00:46:04.588Z,10.50
2023-01-19T00:48:31.874Z,11.20
2023-01-19T00:50:59.121Z,13.27
2023-01-19T00:53:26.562Z,13.43
2023-01-19T00:55:53.780Z,16.70
2023-01-19T00:58:21.014Z,16.63
2023-01-19T01:00:49.798Z,13.83
2023-01-19T01:03:17.059Z,10.93
2023-01-19T01:05:44.291Z,8.80
2023-01-19T01:08:11.516Z,10.90
2023-01-19T01:10:38.800Z,11.67
2023-01-19T01:13:20.180Z,6.03
2023-01-19T01:15:51.819Z,15.73
2023-01-19T01:18:19.117Z,11.90
2023-01-19T01:20:46.396Z,15.07
2023-01-19T01:23:14.118Z,11.83
2023-01-19T01:25:41.574Z,15.50
2023-01-19T01:28:10.264Z,11.10
2023-01-19T01:30:37.948Z,9.87
2023-01-19T01:33:06.946Z,13.60
2023-01-19T01:35:34.186Z,19.57
2023-01-19T01:38:01.473Z,12.07
2023-01-19T01:40:28.779Z,18.37
2023-01-19T01:42:56.022Z,13.70
2023-01-19T01:45:29.891Z,20.63
2023-01-19T01:48:01.811Z,14.70
2023-01-19T01:50:33.911Z,12.13
2023-01-19T01:53:06.545Z,17.23
2023-01-19T01:55:38.780Z,15.00
2023-01-19T01:58:09.766Z,18.80
2023-01-19T02:00:38.891Z,17.43
2023-01-19T02:03:06.265Z,17.00
2023-01-19T02:05:36.182Z,14.97
2023-01-19T02:08:08.343Z,16.50
2023-01-19T02:10:36.006Z,15.30
2023-01-19T02:13:03.784Z,13.30
2023-01-19T02:15:31.059Z,18.90
2023-01-19T02:17:58.291Z,10.87
2023-01-19T02:20:30.596Z,13.03
2023-01-19T02:23:03.780Z,17.40
2023-01-19T02:25:32.755Z,14.03
2023-01-19T02:28:01.098Z,16.87
2023-01-19T02:30:28.911Z,6.50
2023-01-19T02:32:56.209Z,14.53
2023-01-19T02:35:24.488Z,16.03
2023-01-19T02:37:53.523Z,11.30
2023-01-19T02:40:22.527Z,17.37
2023-01-19T02:42:53.227Z,12.83
2023-01-19T02:45:22.498Z,11.80
2023-01-19T02:47:52.175Z,19.13
2023-01-19T02:50:44.786Z,17.23
2023-01-19T02:53:40.435Z,16.10
2023-01-19T02:56:28.091Z,16.73
2023-01-19T02:59:05.909Z,18.80
2023-01-19T03:01:47.303Z,14.00
2023-01-19T03:04:23.970Z,15.00
2023-01-19T03:06:59.347Z,16.00
2023-01-19T03:09:32.552Z,12.70
2023-01-19T03:12:05.020Z,11.50
2023-01-19T03:14:38.611Z,11.33
2023-01-19T03:17:09.538Z,12.27
2023-01-19T03:19:40.217Z,14.80
2023-01-19T03:22:11.116Z,12.20
2023-01-19T03:24:42.118Z,14.80
2023-01-19T03:27:14.874Z,11.47
2023-01-19T03:29:49.650Z,11.37
2023-01-19T03:32:19.794Z,14.17
2023-01-19T03:34:51.046Z,11.73
2023-01-19T03:37:20.570Z,16.50
2023-01-19T03:39:47.900Z,12.47
2023-01-19T03:42:17.421Z,18.63
2023-01-19T03:44:47.647Z,18.10
2023-01-19T03:47:15.215Z,18.83
2023-01-19T03:49:45.105Z,19.80
2023-01-19T03:52:12.542Z,13.63
2023-01-19T03:54:40.429Z,8.37
2023-01-19T03:57:08.150Z,14.50
2023-01-19T03:59:35.561Z,13.90
2023-01-19T04:02:04.287Z,16.00
2023-01-19T04:04:31.535Z,14.77
2023-01-19T04:06:58.883Z,16.67
2023-01-19T04:09:26.123Z,11.53
2023-01-19T04:11:53.441Z,13.00
2023-01-19T04:14:20.742Z,19.93
2023-01-19T04:16:48.086Z,15.10
2023-01-19T04:19:16.708Z,11.70
2023-01-19T04:21:44.069Z,12.50
2023-01-19T04:24:11.430Z,17.90
2023-01-19T04:26:38.682Z,16.77
2023-01-19T04:29:05.944Z,17.77
2023-01-19T04:31:33.300Z,11.53
2023-01-19T04:34:00.637Z,15.73
2023-01-19T04:36:29.531Z,14.97
2023-01-19T04:38:56.803Z,12.97
2023-01-19T04:41:24.052Z,15.07
2023-01-19T04:43:51.302Z,14.93
2023-01-19T04:46:18.677Z,18.33
2023-01-19T04:48:45.942Z,15.90
2023-01-19T04:51:13.250Z,19.90
2023-01-19T04:53:41.837Z,15.03
2023-01-19T04:56:09.092Z,18.83
2023-01-19T04:58:36.360Z,15.73
2023-01-19T05:01:08.310Z,13.83
2023-01-19T05:03:35.845Z,14.30
2023-01-19T05:06:03.127Z,21.30
2023-01-19T05:08:30.396Z,18.50
2023-01-19T05:10:58.969Z,16.37
2023-01-19T05:13:26.399Z,16.03
2023-01-19T05:15:53.700Z,15.50
2023-01-19T05:18:20.941Z,15.67
2023-01-19T05:20:48.163Z,19.17
2023-01-19T05:23:15.414Z,20.00
2023-01-19T05:25:42.955Z,17.33
2023-01-19T05:28:11.816Z,24.60
2023-01-19T05:30:39.190Z,19.60
2023-01-19T05:33:06.475Z,20.27
2023-01-19T05:35:36.152Z,17.13
2023-01-19T05:38:04.307Z,21.87
2023-01-19T05:40:31.885Z,22.27
2023-01-19T05:42:59.571Z,28.27
2023-01-19T05:45:28.568Z,21.00
2023-01-19T05:47:55.913Z,27.80
2023-01-19T05:50:23.159Z,16.43
2023-01-19T05:52:50.755Z,21.57
2023-01-19T05:55:17.889Z,26.60
2023-01-19T05:57:45.166Z,21.30
2023-01-19T06:00:13.753Z,20.53
2023-01-19T06:02:42.543Z,16.43
2023-01-19T06:05:10.196Z,22.27
2023-01-19T06:07:37.463Z,16.50
2023-01-19T06:10:05.562Z,18.47
2023-01-19T06:12:32.887Z,20.20
2023-01-19T06:15:00.151Z,19.93
2023-01-19T06:17:27.384Z,19.10
2023-01-19T06:19:56.260Z,20.17
2023-01-19T06:22:23.641Z,19.47
2023-01-19T06:24:50.854Z,19.07
2023-01-19T06:27:18.154Z,25.20
2023-01-19T06:29:45.309Z,20.30
2023-01-19T06:32:12.565Z,14.00
2023-01-19T06:34:39.954Z,24.30
2023-01-19T06:37:08.533Z,21.80
2023-01-19T06:39:35.785Z,17.03
2023-01-19T06:42:03.362Z,12.13
2023-01-19T06:44:30.519Z,21.13
2023-01-19T06:47:15.151Z,20.00
2023-01-19T06:49:43.478Z,13.57
2023-01-19T06:52:13.008Z,14.27
2023-01-19T06:54:40.259Z,19.67
2023-01-19T06:57:07.465Z,20.00
2023-01-19T06:59:34.727Z,20.87
2023-01-19T07:02:26.388Z,17.87
2023-01-19T07:04:49.089Z,12.80
2023-01-19T07:07:17.776Z,17.60
2023-01-19T07:09:44.950Z,17.90
2023-01-19T07:12:12.132Z,20.23
2023-01-19T07:14:39.327Z,13.57
2023-01-19T07:17:06.481Z,19.33
2023-01-19T07:19:33.728Z,18.53
2023-01-19T07:22:00.947Z,19.10
2023-01-19T07:24:29.796Z,25.53
2023-01-19T07:26:56.992Z,21.00
2023-01-19T07:29:24.200Z,20.63
2023-01-19T07:31:51.464Z,20.30
2023-01-19T07:34:18.776Z,13.00
2023-01-19T07:36:45.935Z,13.40
2023-01-19T07:39:13.271Z,21.07
2023-01-19T07:41:41.852Z,16.27
2023-01-19T07:44:09.476Z,21.67
2023-01-19T07:46:36.714Z,19.53
2023-01-19T07:49:04.014Z,13.20
2023-01-19T07:51:31.175Z,22.93
2023-01-19T07:53:58.485Z,14.37
2023-01-19T07:56:25.703Z,16.10
2023-01-19T07:58:54.364Z,17.33
2023-01-19T08:01:21.672Z,21.63
2023-01-19T08:03:49.310Z,16.70
2023-01-19T08:06:20.851Z,18.90
2023-01-19T08:08:48.730Z,16.47
2023-01-19T08:11:16.109Z,20.30
2023-01-19T08:13:43.463Z,21.37
2023-01-19T08:16:12.132Z,19.63
2023-01-19T08:18:39.433Z,18.23
2023-01-19T08:21:06.732Z,22.83
2023-01-19T08:23:34.010Z,25.40
2023-01-19T08:26:01.214Z,22.80
2023-01-19T08:28:28.505Z,21.30
2023-01-19T08:30:55.857Z,21.13
2023-01-19T08:33:24.794Z,17.80
2023-01-19T08:35:53.800Z,22.60
2023-01-19T08:38:21.182Z,19.93
2023-01-19T08:40:49.037Z,22.50
2023-01-19T08:43:17.475Z,23.10
2023-01-19T08:45:50.425Z,25.50
2023-01-19T08:48:20.062Z,18.70
2023-01-19T08:50:49.689Z,28.10
2023-01-19T08:53:17.167Z,20.20
2023-01-19T08:55:44.420Z,24.87
2023-01-19T08:58:11.635Z,17.83
2023-01-19T09:00:40.007Z,21.50
2023-01-19T09:03:11.108Z,19.63
2023-01-19T09:05:39.124Z,22.50
2023-01-19T09:08:10.195Z,22.77
2023-01-19T09:10:38.441Z,22.53
2023-01-19T09:13:07.210Z,23.90
2023-01-19T09:15:34.526Z,21.87
2023-01-19T09:18:02.387Z,21.77
2023-01-19T09:20:29.975Z,18.03
2023-01-19T09:22:57.829Z,18.03
2023-01-19T09:25:26.888Z,21.20
2023-01-19T09:27:54.068Z,17.30
2023-01-19T09:30:21.733Z,22.63
2023-01-19T09:32:48.970Z,18.20
2023-01-19T09:35:16.320Z,16.30
2023-01-19T09:37:46.300Z,18.20
2023-01-19T09:40:15.084Z,24.63
2023-01-19T09:42:45.837Z,13.07
2023-01-19T09:45:19.357Z,18.87
2023-01-19T09:47:48.295Z,23.53
2023-01-19T09:50:26.054Z,20.93
2023-01-19T09:52:57.077Z,21.17
2023-01-19T09:55:27.354Z,20.17
2023-01-19T09:57:56.082Z,16.30
2023-01-19T10:00:25.147Z,18.30
2023-01-19T10:02:58.575Z,13.77
2023-01-19T10:05:31.391Z,15.90
2023-01-19T10:08:13.931Z,19.50
2023-01-19T10:10:45.256Z,22.37
2023-01-19T10:13:38.993Z,19.73
2023-01-19T10:16:19.369Z,23.07
2023-01-19T10:18:48.254Z,18.97
2023-01-19T10:21:20.843Z,17.90
2023-01-19T10:23:53.468Z,20.50
2023-01-19T10:26:24.261Z,18.70
2023-01-19T10:28:55.533Z,17.97
2023-01-19T10:31:24.537Z,19.03
2023-01-19T10:33:52.569Z,21.40
2023-01-19T10:36:26.234Z,17.47
2023-01-19T10:38:53.485Z,22.47
2023-01-19T10:41:26.905Z,20.33
2023-01-19T10:44:01.597Z,29.17
2023-01-19T10:46:37.162Z,28.70
2023-01-19T10:49:05.453Z,23.57
2023-01-19T10:51:32.761Z,23.90
2023-01-19T10:54:01.891Z,27.30
2023-01-19T10:56:35.681Z,20.53
2023-01-19T10:59:06.175Z,24.60
2023-01-19T11:01:34.204Z,23.20
2023-01-19T11:04:18.759Z,27.13
2023-01-19T11:06:46.043Z,21.93
2023-01-19T11:09:17.600Z,26.43
2023-01-19T11:11:47.961Z,24.60
2023-01-19T11:14:19.223Z,25.57
2023-01-19T11:16:49.960Z,24.00
2023-01-19T11:19:24.973Z,20.60
2023-01-19T11:21:53.287Z,15.30
2023-01-19T11:24:20.833Z,20.60
2023-01-19T11:26:55.096Z,17.10
2023-01-19T11:29:26.518Z,15.30
2023-01-19T11:31:55.327Z,13.27
2023-01-19T11:34:26.321Z,11.80
2023-01-19T11:36:58.869Z,8.10
2023-01-19T11:39:27.508Z,10.43
2023-01-19T11:41:57.240Z,11.70
2023-01-19T11:44:30.060Z,7.13
2023-01-19T11:47:00.137Z,8.13
2023-01-19T11:49:40.492Z,8.27
2023-01-19T11:52:19.175Z,11.07
2023-01-19T11:54:54.108Z,6.43
2023-01-19T11:57:21.468Z,12.27
2023-01-19T11:59:52.806Z,8.87
2023-01-19T12:02:27.114Z,6.03
2023-01-19T12:04:57.902Z,6.07
2023-01-19T12:07:30.110Z,5.40
2023-01-19T12:10:06.994Z,4.70
2023-01-19T12:12:36.479Z,4.50
2023-01-19T12:15:15.341Z,7.47
2023-01-19T12:17:47.403Z,6.20
2023-01-19T12:20:25.003Z,6.23
2023-01-19T12:23:11.562Z,6.67
2023-01-19T12:25:54.653Z,4.03
2023-01-19T12:28:28.557Z,5.33
2023-01-19T12:30:59.256Z,5.50
2023-01-19T12:33:33.500Z,3.30
2023-01-19T12:36:03.240Z,4.97
2023-01-19T12:38:39.030Z,7.63
2023-01-19T12:41:21.038Z,5.43
2023-01-19T12:44:09.089Z,4.63
2023-01-19T12:46:38.786Z,6.23
2023-01-19T12:49:10.920Z,2.97
2023-01-19T12:51:38.430Z,4.37
2023-01-19T12:54:08.176Z,5.37
2023-01-19T12:56:37.730Z,7.03
2023-01-19T12:59:05.386Z,7.27
2023-01-19T13:01:32.828Z,5.63
2023-01-19T13:04:06.606Z,3.23
2023-01-19T13:07:09.419Z,5.23
2023-01-19T13:09:38.103Z,7.20
2023-01-19T13:12:22.880Z,5.20
2023-01-19T13:14:50.296Z,4.47
2023-01-19T13:17:25.247Z,4.73
2023-01-19T13:20:00.751Z,4.83
2023-01-19T13:23:01.617Z,3.93
2023-01-19T13:25:32.771Z,2.73
2023-01-19T13:28:00.877Z,5.40
2023-01-19T13:30:30.062Z,6.47
2023-01-19T13:33:05.262Z,6.80
2023-01-19T13:35:34.075Z,7.83
2023-01-19T13:38:02.475Z,8.87
2023-01-19T13:40:36.565Z,3.53
2023-01-19T13:43:06.864Z,2.23
2023-01-19T13:45:36.957Z,5.10
2023-01-19T13:48:07.693Z,3.50
2023-01-19T13:50:37.489Z,2.53
2023-01-19T13:53:17.099Z,5.67
2023-01-19T13:55:44.417Z,3.23
2023-01-19T13:58:20.565Z,9.57
2023-01-19T14:00:48.124Z,3.83
2023-01-19T14:03:18.750Z,4.43
2023-01-19T14:05:50.047Z,3.30
2023-01-19T14:08:17.435Z,8.10
2023-01-19T14:10:46.440Z,3.90
2023-01-19T14:13:15.756Z,8.43
2023-01-19T14:15:44.661Z,3.90
2023-01-19T14:18:25.697Z,2.73
2023-01-19T14:20:59.306Z,1.63
2023-01-19T14:23:44.912Z,2.47
2023-01-19T14:26:41.223Z,4.57
2023-01-19T14:29:17.393Z,1.57
2023-01-19T14:31:45.997Z,1.90
2023-01-19T14:34:32.662Z,8.90
2023-01-19T14:37:02.809Z,2.17
2023-01-19T14:39:33.113Z,4.20
2023-01-19T14:42:03.592Z,3.13
2023-01-19T14:44:36.983Z,4.23
2023-01-19T14:47:05.983Z,2.57
2023-01-19T14:49:35.461Z,5.43
2023-01-19T14:52:08.367Z,3.90
2023-01-19T14:54:39.093Z,2.80
2023-01-19T14:57:12.012Z,6.40
2023-01-19T14:59:39.363Z,3.47
2023-01-19T15:02:06.920Z,3.93
2023-01-19T15:04:34.386Z,3.20
2023-01-19T15:07:01.676Z,4.63
2023-01-19T15:09:30.444Z,2.00
2023-01-19T15:11:58.244Z,3.13
2023-01-19T15:14:25.493Z,5.37
2023-01-19T15:16:52.691Z,4.20
2023-01-19T15:19:19.925Z,4.30
2023-01-19T15:21:47.090Z,2.50
2023-01-19T15:24:16.356Z,2.53
2023-01-19T15:26:46.609Z,5.63
2023-01-19T15:29:19.237Z,0.77
2023-01-19T15:31:46.670Z,3.23
2023-01-19T15:34:13.975Z,1.10
2023-01-19T15:36:41.620Z,4.10
2023-01-19T15:39:09.195Z,3.20
2023-01-19T15:41:38.594Z,1.47
2023-01-19T15:44:08.877Z,4.17
2023-01-19T15:46:36.702Z,3.00
2023-01-19T15:49:03.926Z,1.40
2023-01-19T15:51:31.484Z,2.20
2023-01-19T15:53:58.708Z,1.57
2023-01-19T15:56:27.960Z,5.97
2023-01-19T15:58:56.056Z,3.13
2023-01-19T16:01:26.890Z,5.70
2023-01-19T16:03:54.181Z,4.90
2023-01-19T16:06:21.453Z,1.23
2023-01-19T16:08:48.637Z,1.90
2023-01-19T16:11:15.927Z,2.47
2023-01-19T16:13:45.289Z,3.50
2023-01-19T16:16:15.700Z,13.93
2023-01-19T16:18:44.564Z,4.77
2023-01-19T16:21:11.839Z,14.53
2023-01-19T16:23:39.302Z,5.70
2023-01-19T16:26:08.503Z,2.20
2023-01-19T16:28:36.833Z,3.43
2023-01-19T16:31:04.653Z,3.00
2023-01-19T16:33:31.874Z,4.90
2023-01-19T16:36:17.538Z,3.20
2023-01-19T16:38:44.938Z,4.83
2023-01-19T16:41:12.122Z,10.57
2023-01-19T16:43:39.372Z,4.20
2023-01-19T16:46:06.658Z,6.07
2023-01-19T16:48:33.903Z,5.37
2023-01-19T16:51:04.687Z,13.63
2023-01-19T16:53:33.478Z,9.20
2023-01-19T16:56:04.541Z,21.27
2023-01-19T16:58:31.816Z,8.73
2023-01-19T17:00:59.203Z,6.77
2023-01-19T17:03:26.542Z,5.63
2023-01-19T17:05:53.785Z,3.93
2023-01-19T17:08:22.480Z,5.83
2023-01-19T17:10:49.673Z,4.40
2023-01-19T17:13:17.058Z,7.77
2023-01-19T17:15:44.248Z,8.70
2023-01-19T17:18:11.453Z,4.50
2023-01-19T17:20:38.661Z,4.63
2023-01-19T17:23:05.996Z,8.13
2023-01-19T17:25:34.587Z,4.50
2023-01-19T17:28:01.799Z,3.20
2023-01-19T17:30:29.190Z,3.37
2023-01-19T17:32:56.687Z,3.63
2023-01-19T17:35:24.114Z,5.50
2023-01-19T17:37:53.017Z,4.03
2023-01-19T17:40:20.259Z,10.00
2023-01-19T17:42:48.855Z,11.03
2023-01-19T17:45:16.304Z,6.63
2023-01-19T17:47:43.848Z,5.90
2023-01-19T17:50:11.545Z,4.70
2023-01-19T17:52:38.958Z,10.47
2023-01-19T17:55:06.836Z,6.30
2023-01-19T17:57:34.079Z,6.80
2023-01-19T18:00:03.765Z,6.20
2023-01-19T18:02:39.609Z,7.73
2023-01-19T18:05:08.127Z,5.13
2023-01-19T18:07:35.445Z,4.90
2023-01-19T18:10:02.690Z,4.73
2023-01-19T18:12:29.872Z,8.00
2023-01-19T18:14:57.076Z,9.70
2023-01-19T18:17:25.799Z,7.60
2023-01-19T18:19:53.037Z,3.40
2023-01-19T18:22:20.248Z,5.67
2023-01-19T18:24:47.433Z,8.10
2023-01-19T18:27:14.789Z,3.20
2023-01-19T18:29:42.048Z,4.33
2023-01-19T18:32:09.607Z,19.13
2023-01-19T18:34:38.279Z,50.33
2023-01-19T18:37:05.432Z,6.10
2023-01-19T18:39:32.789Z,4.87
2023-01-19T18:42:00.007Z,8.30
2023-01-19T18:44:27.267Z,9.77
2023-01-19T18:46:54.436Z,7.50
2023-01-19T18:49:21.711Z,8.80
2023-01-19T18:51:50.267Z,7.03
2023-01-19T18:54:17.526Z,5.67
2023-01-19T18:56:44.766Z,9.17
2023-01-19T18:59:12.025Z,9.40
2023-01-19T19:01:39.364Z,6.47
2023-01-19T19:04:06.839Z,6.57
2023-01-19T19:06:34.309Z,10.53
2023-01-19T19:09:03.507Z,14.60
2023-01-19T19:11:30.794Z,17.43
2023-01-19T19:14:01.308Z,7.30
2023-01-19T19:16:29.955Z,6.90
2023-01-19T19:18:57.287Z,10.73
2023-01-19T19:21:24.671Z,5.43
2023-01-19T19:23:53.053Z,9.60
2023-01-19T19:26:22.998Z,8.77
2023-01-19T19:28:50.334Z,7.60
2023-01-19T19:31:19.445Z,7.20
2023-01-19T19:33:47.559Z,6.77
2023-01-19T19:36:15.287Z,6.20
2023-01-19T19:38:42.661Z,5.00
2023-01-19T19:41:12.571Z,6.60
2023-01-19T19:43:41.176Z,7.80
2023-01-19T19:46:10.534Z,8.50
2023-01-19T19:48:39.330Z,7.90
2023-01-19T19:51:17.499Z,9.10
2023-01-19T19:53:45.347Z,6.40
2023-01-19T19:56:13.311Z,9.50
2023-01-19T19:58:42.908Z,8.07
2023-01-19T20:01:12.000Z,10.33
2023-01-19T20:03:39.522Z,7.53
2023-01-19T20:06:08.928Z,7.50
2023-01-19T20:08:36.600Z,8.83
2023-01-19T20:11:05.949Z,4.63
2023-01-19T20:13:34.186Z,4.43
2023-01-19T20:16:05.166Z,8.60
2023-01-19T20:18:32.691Z,8.13
2023-01-19T20:21:00.159Z,18.27
2023-01-19T20:23:27.399Z,23.93
2023-01-19T20:25:54.682Z,25.63
2023-01-19T20:28:21.974Z,11.80
2023-01-19T20:30:49.281Z,3.80
2023-01-19T20:33:17.987Z,10.47
2023-01-19T20:35:45.185Z,5.90
2023-01-19T20:38:12.394Z,7.57
2023-01-19T20:40:39.589Z,7.20
2023-01-19T20:43:06.820Z,7.33
2023-01-19T20:45:34.097Z,11.03
2023-01-19T20:48:01.466Z,9.53
2023-01-19T20:50:30.078Z,6.57
2023-01-19T20:52:57.395Z,2.40
2023-01-19T20:55:24.577Z,5.90
2023-01-19T20:57:51.923Z,2.33
2023-01-19T21:00:19.690Z,3.70
2023-01-19T21:02:47.068Z,4.13
2023-01-19T21:05:14.659Z,4.03
2023-01-19T21:07:43.469Z,2.30
2023-01-19T21:10:10.845Z,5.17
2023-01-19T21:12:38.065Z,2.57
2023-01-19T21:15:06.542Z,8.03
2023-01-19T21:17:33.809Z,5.93
2023-01-19T21:20:00.994Z,5.70
2023-01-19T21:22:28.283Z,4.13
2023-01-19T21:24:56.824Z,5.13
2023-01-19T21:27:24.164Z,46.50
2023-01-19T21:29:51.459Z,47.13
2023-01-19T21:32:18.791Z,7.13
2023-01-19T21:34:46.045Z,6.00
2023-01-19T21:37:13.371Z,8.13
2023-01-19T21:39:40.586Z,5.33
2023-01-19T21:42:09.248Z,5.83
2023-01-19T21:44:36.579Z,7.30
2023-01-19T21:47:04.546Z,5.50
2023-01-19T21:49:31.713Z,5.93
2023-01-19T21:51:59.078Z,7.90
2023-01-19T21:54:26.610Z,5.40
2023-01-19T21:56:53.895Z,11.87
2023-01-19T21:59:22.446Z,3.90
2023-01-19T22:01:49.894Z,3.43
2023-01-19T22:04:17.225Z,2.87
2023-01-19T22:06:44.544Z,8.10
2023-01-19T22:09:11.756Z,4.70
2023-01-19T22:11:39.025Z,5.60
2023-01-19T22:14:06.325Z,7.07
2023-01-19T22:16:34.933Z,10.90
2023-01-19T22:19:02.347Z,6.13
2023-01-19T22:21:32.132Z,9.60
2023-01-19T22:24:00.562Z,17.40
2023-01-19T22:26:29.019Z,11.23
2023-01-19T22:28:57.988Z,13.50
2023-01-19T22:31:27.193Z,12.83
2023-01-19T22:33:56.326Z,14.50
2023-01-19T22:36:24.934Z,13.23
2023-01-19T22:38:54.406Z,12.00
2023-01-19T22:41:24.002Z,14.60
2023-01-19T22:43:54.150Z,16.97
2023-01-19T22:46:23.441Z,14.47
2023-01-19T22:48:51.333Z,11.97
2023-01-19T22:51:21.512Z,18.80
2023-01-19T22:53:48.892Z,22.47
2023-01-19T22:56:18.128Z,15.87
2023-01-19T22:58:46.697Z,18.67
2023-01-19T23:01:16.600Z,23.10
2023-01-19T23:03:44.078Z,16.87
2023-01-19T23:06:12.973Z,24.03
2023-01-19T23:08:42.054Z,15.60
2023-01-19T23:11:11.864Z,24.70
2023-01-19T23:13:39.314Z,18.27
2023-01-19T23:16:07.829Z,18.23
2023-01-19T23:18:35.256Z,23.40
2023-01-19T23:21:03.699Z,25.80
2023-01-19T23:23:31.080Z,31.23
2023-01-19T23:26:03.860Z,23.30
2023-01-19T23:28:31.201Z,27.73
2023-01-19T23:30:58.560Z,27.33
2023-01-19T23:33:25.988Z,24.47
2023-01-19T23:35:55.096Z,27.70
2023-01-19T23:38:22.669Z,27.13
2023-01-19T23:40:49.893Z,28.77
2023-01-19T23:43:18.463Z,33.90
2023-01-19T23:45:45.648Z,26.33
2023-01-19T23:48:13.060Z,27.03
2023-01-19T23:50:40.799Z,32.97
2023-01-19T23:53:08.140Z,30.90
2023-01-19T23:55:35.422Z,41.13
2023-01-19T23:58:02.867Z,37.20
